sensor_id;sensor_type;location;lat;lon;timestamp;temperature;humidity
17252;DHT22;8742;51.716;8.790;2023-02-15T00:01:47;3.10;99.90
17252;DHT22;8742;51.716;8.790;2023-02-15T00:06:47;3.10;99.90
17252;DHT22;8742;51.716;8.790;2023-02-15T00:09:15;3.10;99.90
17252;DHT22;8742;51.716;8.790;2023-02-15T00:11:42;3.00;99.90
17252;DHT22;8742;51.716;8.790;2023-02-15T00:14:17;3.00;99.90
17252;DHT22;8742;51.716;8.790;2023-02-15T00:16:45;3.00;99.90
17252;DHT22;8742;51.716;8.790;2023-02-15T00:19:13;3.00;99.90
17252;DHT22;8742;51.716;8.790;2023-02-15T00:21:41;2.90;99.90
17252;DHT22;8742;51.716;8.790;2023-02-15T00:24:11;2.90;99.90
17252;DHT22;8742;51.716;8.790;2023-02-15T00:26:39;2.90;99.90
17252;DHT22;8742;51.716;8.790;2023-02-15T00:29:07;2.90;99.90
17252;DHT22;8742;51.716;8.790;2023-02-15T00:31:34;2.90;99.90
17252;DHT22;8742;51.716;8.790;2023-02-15T00:34:02;2.80;99.90
17252;DHT22;8742;51.716;8.790;2023-02-15T00:36:29;2.80;99.90
17252;DHT22;8742;51.716;8.790;2023-02-15T00:38:56;2.80;99.90
17252;DHT22;8742;51.716;8.790;2023-02-15T00:41:25;2.80;99.90
17252;DHT22;8742;51.716;8.790;2023-02-15T00:43:52;2.70;99.90
17252;DHT22;8742;51.716;8.790;2023-02-15T00:46:18;2.70;99.90
17252;DHT22;8742;51.716;8.790;2023-02-15T00:48:45;2.70;99.90
17252;DHT22;8742;51.716;8.790;2023-02-15T00:51:12;2.70;99.90
17252;DHT22;8742;51.716;8.790;2023-02-15T00:53:39;2.70;99.90
17252;DHT22;8742;51.716;8.790;2023-02-15T00:56:06;2.60;99.90
17252;DHT22;8742;51.716;8.790;2023-02-15T00:58:34;2.60;99.90
17252;DHT22;8742;51.716;8.790;2023-02-15T01:01:03;2.60;99.90
17252;DHT22;8742;51.716;8.790;2023-02-15T01:03:30;2.60;99.90
17252;DHT22;8742;51.716;8.790;2023-02-15T01:05:57;2.60;99.90
17252;DHT22;8742;51.716;8.790;2023-02-15T01:08:24;2.50;99.90
17252;DHT22;8742;51.716;8.790;2023-02-15T01:10:51;2.50;99.90
17252;DHT22;8742;51.716;8.790;2023-02-15T01:13:19;2.50;99.90
17252;DHT22;8742;51.716;8.790;2023-02-15T01:15:52;2.40;99.90
17252;DHT22;8742;51.716;8.790;2023-02-15T01:18:19;2.40;99.90
17252;DHT22;8742;51.716;8.790;2023-02-15T01:20:46;2.40;99.90
17252;DHT22;8742;51.716;8.790;2023-02-15T01:23:13;2.30;99.90
17252;DHT22;8742;51.716;8.790;2023-02-15T01:25:40;2.30;99.90
17252;DHT22;8742;51.716;8.790;2023-02-15T01:28:07;2.20;99.90
17252;DHT22;8742;51.716;8.790;2023-02-15T01:30:34;2.20;99.90
17252;DHT22;8742;51.716;8.790;2023-02-15T01:33:02;2.20;99.90
17252;DHT22;8742;51.716;8.790;2023-02-15T01:35:29;2.20;99.90
17252;DHT22;8742;51.716;8.790;2023-02-15T01:37:56;2.10;99.90
17252;DHT22;8742;51.716;8.790;2023-02-15T01:40:24;2.10;99.90
17252;DHT22;8742;51.716;8.790;2023-02-15T01:42:51;2.10;99.90
17252;DHT22;8742;51.716;8.790;2023-02-15T01:45:22;2.00;99.90
17252;DHT22;8742;51.716;8.790;2023-02-15T01:47:52;2.00;99.90
17252;DHT22;8742;51.716;8.790;2023-02-15T01:50:26;1.90;99.90
17252;DHT22;8742;51.716;8.790;2023-02-15T01:52:58;2.00;99.90
17252;DHT22;8742;51.716;8.790;2023-02-15T01:55:30;1.90;99.90
17252;DHT22;8742;51.716;8.790;2023-02-15T01:57:58;1.90;99.90
17252;DHT22;8742;51.716;8.790;2023-02-15T02:00:25;1.90;99.90
17252;DHT22;8742;51.716;8.790;2023-02-15T02:02:54;1.90;99.90
17252;DHT22;8742;51.716;8.790;2023-02-15T02:05:24;1.90;99.90
17252;DHT22;8742;51.716;8.790;2023-02-15T02:07:52;1.80;99.90
17252;DHT22;8742;51.716;8.790;2023-02-15T02:10:24;1.80;99.90
17252;DHT22;8742;51.716;8.790;2023-02-15T02:12:53;1.80;99.90
17252;DHT22;8742;51.716;8.790;2023-02-15T02:15:24;1.70;99.90
17252;DHT22;8742;51.716;8.790;2023-02-15T02:18:03;1.70;99.90
17252;DHT22;8742;51.716;8.790;2023-02-15T02:23:35;1.70;99.90
17252;DHT22;8742;51.716;8.790;2023-02-15T02:26:32;1.70;99.90
17252;DHT22;8742;51.716;8.790;2023-02-15T02:29:33;1.60;99.90
17252;DHT22;8742;51.716;8.790;2023-02-15T02:32:44;1.60;99.90
17252;DHT22;8742;51.716;8.790;2023-02-15T02:35:18;1.50;99.90
17252;DHT22;8742;51.716;8.790;2023-02-15T02:37:57;1.50;99.90
17252;DHT22;8742;51.716;8.790;2023-02-15T02:40:32;1.50;99.90
17252;DHT22;8742;51.716;8.790;2023-02-15T02:43:05;1.50;99.90
17252;DHT22;8742;51.716;8.790;2023-02-15T02:45:40;1.50;99.90
17252;DHT22;8742;51.716;8.790;2023-02-15T02:48:13;1.50;99.90
17252;DHT22;8742;51.716;8.790;2023-02-15T02:50:41;1.40;99.90
17252;DHT22;8742;51.716;8.790;2023-02-15T02:53:09;1.40;99.90
17252;DHT22;8742;51.716;8.790;2023-02-15T02:55:40;1.50;99.90
17252;DHT22;8742;51.716;8.790;2023-02-15T02:58:11;1.40;99.90
17252;DHT22;8742;51.716;8.790;2023-02-15T03:00:43;1.40;99.90
17252;DHT22;8742;51.716;8.790;2023-02-15T03:03:14;1.30;99.90
17252;DHT22;8742;51.716;8.790;2023-02-15T03:05:46;1.30;99.90
17252;DHT22;8742;51.716;8.790;2023-02-15T03:08:16;1.30;99.90
17252;DHT22;8742;51.716;8.790;2023-02-15T03:10:48;1.30;99.90
17252;DHT22;8742;51.716;8.790;2023-02-15T03:13:15;1.30;99.90
17252;DHT22;8742;51.716;8.790;2023-02-15T03:15:44;1.30;99.90
17252;DHT22;8742;51.716;8.790;2023-02-15T03:18:35;1.30;99.90
17252;DHT22;8742;51.716;8.790;2023-02-15T03:21:03;1.20;99.90
17252;DHT22;8742;51.716;8.790;2023-02-15T03:23:32;1.20;99.90
17252;DHT22;8742;51.716;8.790;2023-02-15T03:26:03;1.20;99.90
17252;DHT22;8742;51.716;8.790;2023-02-15T03:28:35;1.20;99.90
17252;DHT22;8742;51.716;8.790;2023-02-15T03:31:05;1.20;99.90
17252;DHT22;8742;51.716;8.790;2023-02-15T03:33:35;1.20;99.90
17252;DHT22;8742;51.716;8.790;2023-02-15T03:36:07;1.20;99.90
17252;DHT22;8742;51.716;8.790;2023-02-15T03:38:40;1.20;99.90
17252;DHT22;8742;51.716;8.790;2023-02-15T03:41:10;1.20;99.90
17252;DHT22;8742;51.716;8.790;2023-02-15T03:43:42;1.20;99.90
17252;DHT22;8742;51.716;8.790;2023-02-15T03:46:15;1.10;99.90
17252;DHT22;8742;51.716;8.790;2023-02-15T03:48:48;1.10;99.90
17252;DHT22;8742;51.716;8.790;2023-02-15T03:51:18;1.00;99.90
17252;DHT22;8742;51.716;8.790;2023-02-15T03:54:04;1.00;99.90
17252;DHT22;8742;51.716;8.790;2023-02-15T03:56:31;1.00;99.90
17252;DHT22;8742;51.716;8.790;2023-02-15T03:58:59;1.00;99.90
17252;DHT22;8742;51.716;8.790;2023-02-15T04:01:54;1.00;99.90
17252;DHT22;8742;51.716;8.790;2023-02-15T04:04:34;1.00;99.90
17252;DHT22;8742;51.716;8.790;2023-02-15T04:07:03;0.90;99.90
17252;DHT22;8742;51.716;8.790;2023-02-15T04:09:31;0.90;99.90
17252;DHT22;8742;51.716;8.790;2023-02-15T04:12:15;0.90;99.90
17252;DHT22;8742;51.716;8.790;2023-02-15T04:14:42;0.90;99.90
17252;DHT22;8742;51.716;8.790;2023-02-15T04:17:38;0.90;99.90
17252;DHT22;8742;51.716;8.790;2023-02-15T04:20:08;0.90;99.90
17252;DHT22;8742;51.716;8.790;2023-02-15T04:22:52;0.80;99.90
17252;DHT22;8742;51.716;8.790;2023-02-15T04:25:37;0.80;99.90
17252;DHT22;8742;51.716;8.790;2023-02-15T04:28:03;0.80;99.90
17252;DHT22;8742;51.716;8.790;2023-02-15T04:30:33;0.80;99.90
17252;DHT22;8742;51.716;8.790;2023-02-15T04:32:59;0.80;99.90
17252;DHT22;8742;51.716;8.790;2023-02-15T04:35:28;0.80;99.90
17252;DHT22;8742;51.716;8.790;2023-02-15T04:37:57;0.80;99.90
17252;DHT22;8742;51.716;8.790;2023-02-15T04:40:23;0.80;99.90
17252;DHT22;8742;51.716;8.790;2023-02-15T04:42:50;0.80;99.90
17252;DHT22;8742;51.716;8.790;2023-02-15T04:45:17;0.80;99.90
17252;DHT22;8742;51.716;8.790;2023-02-15T04:47:44;0.80;99.90
17252;DHT22;8742;51.716;8.790;2023-02-15T04:50:11;0.80;99.90
17252;DHT22;8742;51.716;8.790;2023-02-15T04:52:40;0.70;99.90
17252;DHT22;8742;51.716;8.790;2023-02-15T04:55:07;0.70;99.90
17252;DHT22;8742;51.716;8.790;2023-02-15T04:57:34;0.70;99.90
17252;DHT22;8742;51.716;8.790;2023-02-15T05:00:01;0.70;99.90
17252;DHT22;8742;51.716;8.790;2023-02-15T05:02:27;0.80;99.90
17252;DHT22;8742;51.716;8.790;2023-02-15T05:04:54;0.80;99.90
17252;DHT22;8742;51.716;8.790;2023-02-15T05:07:21;0.80;99.90
17252;DHT22;8742;51.716;8.790;2023-02-15T05:09:49;0.70;99.90
17252;DHT22;8742;51.716;8.790;2023-02-15T05:12:16;0.70;99.90
17252;DHT22;8742;51.716;8.790;2023-02-15T05:14:43;0.70;99.90
17252;DHT22;8742;51.716;8.790;2023-02-15T05:17:10;0.70;99.90
17252;DHT22;8742;51.716;8.790;2023-02-15T05:19:36;0.70;99.90
17252;DHT22;8742;51.716;8.790;2023-02-15T05:22:03;0.70;99.90
17252;DHT22;8742;51.716;8.790;2023-02-15T05:24:30;0.70;99.90
17252;DHT22;8742;51.716;8.790;2023-02-15T05:27:15;0.70;99.90
17252;DHT22;8742;51.716;8.790;2023-02-15T05:30:00;0.70;99.90
17252;DHT22;8742;51.716;8.790;2023-02-15T05:32:26;0.70;99.90
17252;DHT22;8742;51.716;8.790;2023-02-15T05:34:53;0.60;99.90
17252;DHT22;8742;51.716;8.790;2023-02-15T05:37:20;0.60;99.90
17252;DHT22;8742;51.716;8.790;2023-02-15T05:39:47;0.60;99.90
17252;DHT22;8742;51.716;8.790;2023-02-15T05:42:15;0.60;99.90
17252;DHT22;8742;51.716;8.790;2023-02-15T05:44:42;0.60;99.90
17252;DHT22;8742;51.716;8.790;2023-02-15T05:47:09;0.60;99.90
17252;DHT22;8742;51.716;8.790;2023-02-15T05:49:36;0.60;99.90
17252;DHT22;8742;51.716;8.790;2023-02-15T05:52:03;0.60;99.90
17252;DHT22;8742;51.716;8.790;2023-02-15T05:54:30;0.60;99.90
17252;DHT22;8742;51.716;8.790;2023-02-15T05:56:56;0.60;99.90
17252;DHT22;8742;51.716;8.790;2023-02-15T05:59:25;0.60;99.90
17252;DHT22;8742;51.716;8.790;2023-02-15T06:01:52;0.60;99.90
17252;DHT22;8742;51.716;8.790;2023-02-15T06:04:18;0.60;99.90
17252;DHT22;8742;51.716;8.790;2023-02-15T06:06:45;0.60;99.90
17252;DHT22;8742;51.716;8.790;2023-02-15T06:09:12;0.60;99.90
17252;DHT22;8742;51.716;8.790;2023-02-15T06:11:39;0.60;99.90
17252;DHT22;8742;51.716;8.790;2023-02-15T06:14:06;0.60;99.90
17252;DHT22;8742;51.716;8.790;2023-02-15T06:16:34;0.60;99.90
17252;DHT22;8742;51.716;8.790;2023-02-15T06:19:01;0.60;99.90
17252;DHT22;8742;51.716;8.790;2023-02-15T06:21:28;0.60;99.90
17252;DHT22;8742;51.716;8.790;2023-02-15T06:23:55;0.60;99.90
17252;DHT22;8742;51.716;8.790;2023-02-15T06:26:23;0.60;99.90
17252;DHT22;8742;51.716;8.790;2023-02-15T06:28:49;0.60;99.90
17252;DHT22;8742;51.716;8.790;2023-02-15T06:31:16;0.60;99.90
17252;DHT22;8742;51.716;8.790;2023-02-15T06:33:44;0.60;99.90
17252;DHT22;8742;51.716;8.790;2023-02-15T06:36:11;0.60;99.90
17252;DHT22;8742;51.716;8.790;2023-02-15T06:38:38;0.60;99.90
17252;DHT22;8742;51.716;8.790;2023-02-15T06:41:05;0.60;99.90
17252;DHT22;8742;51.716;8.790;2023-02-15T06:43:32;0.60;99.90
17252;DHT22;8742;51.716;8.790;2023-02-15T06:45:59;0.60;99.90
17252;DHT22;8742;51.716;8.790;2023-02-15T06:48:26;0.60;99.90
17252;DHT22;8742;51.716;8.790;2023-02-15T06:50:54;0.60;99.90
17252;DHT22;8742;51.716;8.790;2023-02-15T06:53:21;0.60;99.90
17252;DHT22;8742;51.716;8.790;2023-02-15T06:55:48;0.60;99.90
17252;DHT22;8742;51.716;8.790;2023-02-15T06:58:14;0.70;99.90
17252;DHT22;8742;51.716;8.790;2023-02-15T07:00:41;0.70;99.90
17252;DHT22;8742;51.716;8.790;2023-02-15T07:03:08;0.70;99.90
17252;DHT22;8742;51.716;8.790;2023-02-15T07:05:35;0.70;99.90
17252;DHT22;8742;51.716;8.790;2023-02-15T07:08:04;0.70;99.90
17252;DHT22;8742;51.716;8.790;2023-02-15T07:10:30;0.80;99.90
17252;DHT22;8742;51.716;8.790;2023-02-15T07:12:57;0.80;99.90
17252;DHT22;8742;51.716;8.790;2023-02-15T07:15:23;0.80;99.90
17252;DHT22;8742;51.716;8.790;2023-02-15T07:17:50;0.80;99.90
17252;DHT22;8742;51.716;8.790;2023-02-15T07:20:20;0.90;99.90
17252;DHT22;8742;51.716;8.790;2023-02-15T07:22:48;0.90;99.90
17252;DHT22;8742;51.716;8.790;2023-02-15T07:25:16;0.90;99.90
17252;DHT22;8742;51.716;8.790;2023-02-15T07:27:44;1.00;99.90
17252;DHT22;8742;51.716;8.790;2023-02-15T07:30:13;1.00;99.90
17252;DHT22;8742;51.716;8.790;2023-02-15T07:32:40;1.10;99.90
17252;DHT22;8742;51.716;8.790;2023-02-15T07:35:21;1.10;99.90
17252;DHT22;8742;51.716;8.790;2023-02-15T07:37:48;1.10;99.90
17252;DHT22;8742;51.716;8.790;2023-02-15T07:40:16;1.20;99.90
17252;DHT22;8742;51.716;8.790;2023-02-15T07:42:43;1.20;99.90
17252;DHT22;8742;51.716;8.790;2023-02-15T07:45:10;1.30;99.90
17252;DHT22;8742;51.716;8.790;2023-02-15T07:47:38;1.40;99.90
17252;DHT22;8742;51.716;8.790;2023-02-15T07:50:05;1.40;99.90
17252;DHT22;8742;51.716;8.790;2023-02-15T07:52:32;1.50;99.90
17252;DHT22;8742;51.716;8.790;2023-02-15T07:54:59;1.60;99.90
17252;DHT22;8742;51.716;8.790;2023-02-15T07:57:28;1.60;99.90
17252;DHT22;8742;51.716;8.790;2023-02-15T07:59:55;1.70;99.90
17252;DHT22;8742;51.716;8.790;2023-02-15T08:02:22;1.70;99.90
17252;DHT22;8742;51.716;8.790;2023-02-15T08:04:49;1.80;99.90
17252;DHT22;8742;51.716;8.790;2023-02-15T08:07:16;1.80;99.90
17252;DHT22;8742;51.716;8.790;2023-02-15T08:09:43;1.90;99.90
17252;DHT22;8742;51.716;8.790;2023-02-15T08:12:10;1.90;99.90
17252;DHT22;8742;51.716;8.790;2023-02-15T08:14:39;2.00;99.90
17252;DHT22;8742;51.716;8.790;2023-02-15T08:17:05;2.00;99.90
17252;DHT22;8742;51.716;8.790;2023-02-15T08:19:32;2.10;99.90
17252;DHT22;8742;51.716;8.790;2023-02-15T08:22:01;2.20;99.90
17252;DHT22;8742;51.716;8.790;2023-02-15T08:24:31;2.30;99.90
17252;DHT22;8742;51.716;8.790;2023-02-15T08:26:58;2.40;99.90
17252;DHT22;8742;51.716;8.790;2023-02-15T08:29:29;2.50;99.90
17252;DHT22;8742;51.716;8.790;2023-02-15T08:31:59;2.60;99.90
17252;DHT22;8742;51.716;8.790;2023-02-15T08:34:29;2.70;99.90
17252;DHT22;8742;51.716;8.790;2023-02-15T08:36:56;2.80;99.90
17252;DHT22;8742;51.716;8.790;2023-02-15T08:39:23;2.90;99.90
17252;DHT22;8742;51.716;8.790;2023-02-15T08:41:50;3.00;99.90
17252;DHT22;8742;51.716;8.790;2023-02-15T08:44:18;3.10;99.90
17252;DHT22;8742;51.716;8.790;2023-02-15T08:46:47;3.20;99.90
17252;DHT22;8742;51.716;8.790;2023-02-15T08:49:18;3.40;99.90
17252;DHT22;8742;51.716;8.790;2023-02-15T08:51:45;3.90;99.90
17252;DHT22;8742;51.716;8.790;2023-02-15T08:54:14;4.70;99.90
17252;DHT22;8742;51.716;8.790;2023-02-15T08:56:42;5.70;99.90
17252;DHT22;8742;51.716;8.790;2023-02-15T08:59:13;6.70;99.90
17252;DHT22;8742;51.716;8.790;2023-02-15T09:01:41;7.60;99.90
17252;DHT22;8742;51.716;8.790;2023-02-15T09:04:08;8.20;99.90
17252;DHT22;8742;51.716;8.790;2023-02-15T09:06:37;8.70;99.90
17252;DHT22;8742;51.716;8.790;2023-02-15T09:09:05;9.30;99.90
17252;DHT22;8742;51.716;8.790;2023-02-15T09:11:35;9.70;99.90
17252;DHT22;8742;51.716;8.790;2023-02-15T09:14:03;10.10;99.90
17252;DHT22;8742;51.716;8.790;2023-02-15T09:16:32;10.20;99.90
17252;DHT22;8742;51.716;8.790;2023-02-15T09:19:00;10.30;99.90
17252;DHT22;8742;51.716;8.790;2023-02-15T09:21:28;10.40;99.90
17252;DHT22;8742;51.716;8.790;2023-02-15T09:23:58;10.60;99.90
17252;DHT22;8742;51.716;8.790;2023-02-15T09:26:27;10.70;99.90
17252;DHT22;8742;51.716;8.790;2023-02-15T09:28:56;10.80;99.90
17252;DHT22;8742;51.716;8.790;2023-02-15T09:31:24;10.90;99.90
17252;DHT22;8742;51.716;8.790;2023-02-15T09:33:52;10.90;99.90
17252;DHT22;8742;51.716;8.790;2023-02-15T09:36:20;11.00;99.90
17252;DHT22;8742;51.716;8.790;2023-02-15T09:38:54;11.20;99.90
17252;DHT22;8742;51.716;8.790;2023-02-15T09:41:44;11.30;99.90
17252;DHT22;8742;51.716;8.790;2023-02-15T09:44:20;11.40;99.90
17252;DHT22;8742;51.716;8.790;2023-02-15T09:47:09;11.60;99.90
17252;DHT22;8742;51.716;8.790;2023-02-15T09:49:47;11.90;99.90
17252;DHT22;8742;51.716;8.790;2023-02-15T09:52:33;11.90;99.90
17252;DHT22;8742;51.716;8.790;2023-02-15T09:55:14;12.10;99.90
17252;DHT22;8742;51.716;8.790;2023-02-15T09:57:52;12.40;99.90
17252;DHT22;8742;51.716;8.790;2023-02-15T10:00:26;12.40;99.90
17252;DHT22;8742;51.716;8.790;2023-02-15T10:03:07;12.90;99.90
17252;DHT22;8742;51.716;8.790;2023-02-15T10:05:44;12.80;99.90
17252;DHT22;8742;51.716;8.790;2023-02-15T10:08:32;12.70;99.90
17252;DHT22;8742;51.716;8.790;2023-02-15T10:11:08;12.90;99.90
17252;DHT22;8742;51.716;8.790;2023-02-15T10:17:16;13.10;99.90
17252;DHT22;8742;51.716;8.790;2023-02-15T10:19:53;13.30;99.90
17252;DHT22;8742;51.716;8.790;2023-02-15T10:22:32;13.40;99.90
17252;DHT22;8742;51.716;8.790;2023-02-15T10:25:12;13.70;99.90
17252;DHT22;8742;51.716;8.790;2023-02-15T10:27:46;13.60;99.90
17252;DHT22;8742;51.716;8.790;2023-02-15T10:30:15;13.60;99.90
17252;DHT22;8742;51.716;8.790;2023-02-15T10:32:53;14.00;99.90
17252;DHT22;8742;51.716;8.790;2023-02-15T10:35:29;14.00;99.90
17252;DHT22;8742;51.716;8.790;2023-02-15T10:38:10;14.30;99.90
17252;DHT22;8742;51.716;8.790;2023-02-15T10:40:50;14.50;99.90
17252;DHT22;8742;51.716;8.790;2023-02-15T10:43:31;14.60;99.90
17252;DHT22;8742;51.716;8.790;2023-02-15T10:46:07;14.80;99.90
17252;DHT22;8742;51.716;8.790;2023-02-15T10:49:02;15.00;99.90
17252;DHT22;8742;51.716;8.790;2023-02-15T10:51:42;15.20;99.90
17252;DHT22;8742;51.716;8.790;2023-02-15T10:54:22;15.50;99.90
17252;DHT22;8742;51.716;8.790;2023-02-15T10:56:59;15.70;99.90
17252;DHT22;8742;51.716;8.790;2023-02-15T10:59:46;15.90;99.90
17252;DHT22;8742;51.716;8.790;2023-02-15T11:02:25;16.40;99.90
17252;DHT22;8742;51.716;8.790;2023-02-15T11:05:07;16.50;99.90
17252;DHT22;8742;51.716;8.790;2023-02-15T11:07:44;16.60;99.90
17252;DHT22;8742;51.716;8.790;2023-02-15T11:10:24;16.90;99.80
17252;DHT22;8742;51.716;8.790;2023-02-15T11:12:54;17.10;99.90
17252;DHT22;8742;51.716;8.790;2023-02-15T11:15:27;17.30;99.50
17252;DHT22;8742;51.716;8.790;2023-02-15T11:17:59;17.30;99.90
17252;DHT22;8742;51.716;8.790;2023-02-15T11:20:30;17.50;99.90
17252;DHT22;8742;51.716;8.790;2023-02-15T11:22:59;17.80;99.90
17252;DHT22;8742;51.716;8.790;2023-02-15T11:25:29;18.10;99.90
17252;DHT22;8742;51.716;8.790;2023-02-15T11:27:57;18.60;99.80
17252;DHT22;8742;51.716;8.790;2023-02-15T11:30:27;18.70;99.80
17252;DHT22;8742;51.716;8.790;2023-02-15T11:32:58;18.90;98.30
17252;DHT22;8742;51.716;8.790;2023-02-15T11:35:29;19.00;96.80
17252;DHT22;8742;51.716;8.790;2023-02-15T11:38:03;19.00;99.00
17252;DHT22;8742;51.716;8.790;2023-02-15T11:40:34;19.10;96.70
17252;DHT22;8742;51.716;8.790;2023-02-15T11:43:06;19.10;96.40
17252;DHT22;8742;51.716;8.790;2023-02-15T11:45:40;19.40;94.80
17252;DHT22;8742;51.716;8.790;2023-02-15T11:48:11;19.60;93.80
17252;DHT22;8742;51.716;8.790;2023-02-15T11:50:39;19.50;93.20
17252;DHT22;8742;51.716;8.790;2023-02-15T11:53:11;19.40;96.50
17252;DHT22;8742;51.716;8.790;2023-02-15T11:55:38;19.60;97.10
17252;DHT22;8742;51.716;8.790;2023-02-15T11:58:15;19.90;97.20
17252;DHT22;8742;51.716;8.790;2023-02-15T12:00:45;20.30;97.10
17252;DHT22;8742;51.716;8.790;2023-02-15T12:03:18;20.80;97.70
17252;DHT22;8742;51.716;8.790;2023-02-15T12:05:51;21.30;96.50
17252;DHT22;8742;51.716;8.790;2023-02-15T12:08:20;21.60;95.70
17252;DHT22;8742;51.716;8.790;2023-02-15T12:10:57;21.90;97.30
17252;DHT22;8742;51.716;8.790;2023-02-15T12:13:25;22.40;96.70
17252;DHT22;8742;51.716;8.790;2023-02-15T12:15:54;22.60;96.50
17252;DHT22;8742;51.716;8.790;2023-02-15T12:18:34;22.90;95.60
17252;DHT22;8742;51.716;8.790;2023-02-15T12:21:05;23.20;93.40
17252;DHT22;8742;51.716;8.790;2023-02-15T12:23:34;23.30;94.30
17252;DHT22;8742;51.716;8.790;2023-02-15T12:26:02;23.40;93.10
17252;DHT22;8742;51.716;8.790;2023-02-15T12:28:32;23.50;92.40
17252;DHT22;8742;51.716;8.790;2023-02-15T12:31:01;23.60;90.30
17252;DHT22;8742;51.716;8.790;2023-02-15T12:33:34;23.60;91.00
17252;DHT22;8742;51.716;8.790;2023-02-15T12:36:06;23.50;90.30
17252;DHT22;8742;51.716;8.790;2023-02-15T12:38:36;23.30;90.60
17252;DHT22;8742;51.716;8.790;2023-02-15T12:41:04;23.10;90.70
17252;DHT22;8742;51.716;8.790;2023-02-15T12:43:33;23.30;90.00
17252;DHT22;8742;51.716;8.790;2023-02-15T12:46:19;23.40;90.80
17252;DHT22;8742;51.716;8.790;2023-02-15T12:49:05;23.20;79.60
17252;DHT22;8742;51.716;8.790;2023-02-15T12:51:42;22.90;90.80
17252;DHT22;8742;51.716;8.790;2023-02-15T12:54:35;22.80;86.30
17252;DHT22;8742;51.716;8.790;2023-02-15T12:57:23;22.70;90.20
17252;DHT22;8742;51.716;8.790;2023-02-15T12:59:52;22.90;90.40
17252;DHT22;8742;51.716;8.790;2023-02-15T13:02:25;22.90;86.50
17252;DHT22;8742;51.716;8.790;2023-02-15T13:04:55;22.80;88.10
17252;DHT22;8742;51.716;8.790;2023-02-15T13:07:25;22.70;88.60
17252;DHT22;8742;51.716;8.790;2023-02-15T13:09:52;22.60;86.70
17252;DHT22;8742;51.716;8.790;2023-02-15T13:12:21;22.40;84.60
17252;DHT22;8742;51.716;8.790;2023-02-15T13:14:51;22.20;85.60
17252;DHT22;8742;51.716;8.790;2023-02-15T13:17:23;21.80;82.80
17252;DHT22;8742;51.716;8.790;2023-02-15T13:19:57;20.90;84.70
17252;DHT22;8742;51.716;8.790;2023-02-15T13:22:31;19.80;89.70
17252;DHT22;8742;51.716;8.790;2023-02-15T13:25:01;18.90;90.70
17252;DHT22;8742;51.716;8.790;2023-02-15T13:27:34;18.20;88.00
17252;DHT22;8742;51.716;8.790;2023-02-15T13:30:03;17.50;90.60
17252;DHT22;8742;51.716;8.790;2023-02-15T13:32:38;16.90;90.50
17252;DHT22;8742;51.716;8.790;2023-02-15T13:35:14;16.50;90.10
17252;DHT22;8742;51.716;8.790;2023-02-15T13:38:05;16.00;90.90
17252;DHT22;8742;51.716;8.790;2023-02-15T13:40:36;15.60;91.70
17252;DHT22;8742;51.716;8.790;2023-02-15T13:43:17;15.20;92.20
17252;DHT22;8742;51.716;8.790;2023-02-15T13:45:56;14.90;92.70
17252;DHT22;8742;51.716;8.790;2023-02-15T13:48:35;14.70;93.20
17252;DHT22;8742;51.716;8.790;2023-02-15T13:51:15;14.40;93.70
17252;DHT22;8742;51.716;8.790;2023-02-15T13:53:57;14.30;94.10
17252;DHT22;8742;51.716;8.790;2023-02-15T13:56:31;14.20;94.40
17252;DHT22;8742;51.716;8.790;2023-02-15T13:59:14;14.10;94.80
17252;DHT22;8742;51.716;8.790;2023-02-15T14:01:48;14.10;95.10
17252;DHT22;8742;51.716;8.790;2023-02-15T14:04:51;14.00;95.20
17252;DHT22;8742;51.716;8.790;2023-02-15T14:07:39;13.90;95.60
17252;DHT22;8742;51.716;8.790;2023-02-15T14:10:24;13.80;95.80
17252;DHT22;8742;51.716;8.790;2023-02-15T14:13:18;13.70;96.10
17252;DHT22;8742;51.716;8.790;2023-02-15T14:15:53;13.70;96.20
17252;DHT22;8742;51.716;8.790;2023-02-15T14:18:27;13.60;96.70
17252;DHT22;8742;51.716;8.790;2023-02-15T14:21:04;13.60;96.80
17252;DHT22;8742;51.716;8.790;2023-02-15T14:23:48;13.50;97.00
17252;DHT22;8742;51.716;8.790;2023-02-15T14:26:28;13.60;96.90
17252;DHT22;8742;51.716;8.790;2023-02-15T14:29:06;13.60;97.00
17252;DHT22;8742;51.716;8.790;2023-02-15T14:31:39;13.60;97.30
17252;DHT22;8742;51.716;8.790;2023-02-15T14:34:19;13.70;97.40
17252;DHT22;8742;51.716;8.790;2023-02-15T14:36:48;13.90;97.40
17252;DHT22;8742;51.716;8.790;2023-02-15T14:39:26;14.20;97.60
17252;DHT22;8742;51.716;8.790;2023-02-15T14:42:18;14.60;97.50
17252;DHT22;8742;51.716;8.790;2023-02-15T14:44:52;15.00;96.90
17252;DHT22;8742;51.716;8.790;2023-02-15T14:47:26;15.40;96.50
17252;DHT22;8742;51.716;8.790;2023-02-15T14:49:55;15.80;95.70
17252;DHT22;8742;51.716;8.790;2023-02-15T14:52:22;16.10;95.30
17252;DHT22;8742;51.716;8.790;2023-02-15T14:55:00;16.40;95.30
17252;DHT22;8742;51.716;8.790;2023-02-15T14:57:31;16.50;95.80
17252;DHT22;8742;51.716;8.790;2023-02-15T15:00:00;16.60;95.10
17252;DHT22;8742;51.716;8.790;2023-02-15T15:02:42;16.60;94.80
17252;DHT22;8742;51.716;8.790;2023-02-15T15:05:14;16.70;94.30
17252;DHT22;8742;51.716;8.790;2023-02-15T15:07:46;16.70;93.70
17252;DHT22;8742;51.716;8.790;2023-02-15T15:10:45;16.60;93.60
17252;DHT22;8742;51.716;8.790;2023-02-15T15:13:35;16.50;94.10
17252;DHT22;8742;51.716;8.790;2023-02-15T15:19:10;16.40;93.20
17252;DHT22;8742;51.716;8.790;2023-02-15T15:21:56;16.20;94.10
17252;DHT22;8742;51.716;8.790;2023-02-15T15:24:49;16.10;94.10
17252;DHT22;8742;51.716;8.790;2023-02-15T15:27:52;16.10;93.80
17252;DHT22;8742;51.716;8.790;2023-02-15T15:33:55;15.80;94.90
17252;DHT22;8742;51.716;8.790;2023-02-15T15:39:57;16.20;93.90
17252;DHT22;8742;51.716;8.790;2023-02-15T15:42:32;16.10;94.50
17252;DHT22;8742;51.716;8.790;2023-02-15T15:45:30;15.90;93.50
17252;DHT22;8742;51.716;8.790;2023-02-15T15:50:53;14.90;94.20
17252;DHT22;8742;51.716;8.790;2023-02-15T15:53:25;14.40;94.40
17252;DHT22;8742;51.716;8.790;2023-02-15T15:55:59;13.80;95.20
17252;DHT22;8742;51.716;8.790;2023-02-15T15:58:27;13.30;95.60
17252;DHT22;8742;51.716;8.790;2023-02-15T16:00:59;12.80;96.20
17252;DHT22;8742;51.716;8.790;2023-02-15T16:03:30;12.20;96.70
17252;DHT22;8742;51.716;8.790;2023-02-15T16:05:57;11.80;97.30
17252;DHT22;8742;51.716;8.790;2023-02-15T16:08:27;11.50;97.80
17252;DHT22;8742;51.716;8.790;2023-02-15T16:10:54;11.10;98.40
17252;DHT22;8742;51.716;8.790;2023-02-15T16:13:22;10.80;99.10
17252;DHT22;8742;51.716;8.790;2023-02-15T16:15:50;10.40;99.50
17252;DHT22;8742;51.716;8.790;2023-02-15T16:18:22;10.20;99.90
17252;DHT22;8742;51.716;8.790;2023-02-15T16:20:51;9.90;99.90
17252;DHT22;8742;51.716;8.790;2023-02-15T16:23:50;9.70;99.90
17252;DHT22;8742;51.716;8.790;2023-02-15T16:26:43;9.40;99.90
17252;DHT22;8742;51.716;8.790;2023-02-15T16:29:14;9.20;99.90
17252;DHT22;8742;51.716;8.790;2023-02-15T16:31:42;9.00;99.90
17252;DHT22;8742;51.716;8.790;2023-02-15T16:34:16;8.70;99.90
17252;DHT22;8742;51.716;8.790;2023-02-15T16:36:43;8.60;99.90
17252;DHT22;8742;51.716;8.790;2023-02-15T16:39:18;8.40;99.90
17252;DHT22;8742;51.716;8.790;2023-02-15T16:41:45;8.20;99.90
17252;DHT22;8742;51.716;8.790;2023-02-15T16:44:16;8.10;99.90
17252;DHT22;8742;51.716;8.790;2023-02-15T16:46:46;7.90;99.90
17252;DHT22;8742;51.716;8.790;2023-02-15T16:49:18;7.70;99.90